Latest Weather Observations for Perisher Valley

IDN60801

Issued at 11:52 pm EST Saturday 25 May 2019 (issued every 10 minutes, with the page automatically refreshed every 10 minutes)

About weather observations | Map of weather stations | Latest weather observations for NSW | Other Formats
Station Details ID: 071075 Name: PERISHER VALLEY AWS Lat: -36.41 Lon: 148.41 Height: 1738.0 m
Data from the previous 72 hours. | See also: Recent months at Perisher Valley
Date/Time
EST
Temp
°C
App
Temp
°C
Dew
Point
°C
Rel
Hum
%
Delta-T
°C
Wind Press
QNH
hPa
Press
MSL
hPa
Rain since
9am
mm
Dir  Spd
km/h
Gust
km/h
Spd
kts
Gust
kts
25/11:30pm 5.0 -0.2 3.8 92 0.6 WNW 20 65 11 35 - - 8.0
25/11:00pm 5.1 0.5 3.9 92 0.6 W 17 41 9 22 - - 7.0
25/10:36pm 5.1 -1.5 4.1 93 0.5 W 28 59 15 32 - - 7.0
25/10:30pm 5.2 0.1 4.0 92 0.6 W 20 59 11 32 - - 7.0
25/10:19pm 5.1 -1.1 4.1 93 0.5 W 26 61 14 33 - - 6.2
25/10:00pm 5.1 0.6 4.2 94 0.4 WNW 17 54 9 29 - - 4.8
25/09:30pm 5.2 -1.9 3.7 90 0.7 W 30 72 16 39 - - 4.6
25/09:25pm 5.1 0.1 3.6 90 0.7 WSW 19 56 10 30 - - 4.6
25/09:00pm 5.5 0.9 3.8 89 0.8 W 17 54 9 29 - - 3.6
25/08:30pm 5.5 1.7 4.0 90 0.7 WNW 13 35 7 19 - - 3.6
25/08:00pm 5.5 1.0 4.0 90 0.7 WNW 17 54 9 29 - - 3.4
25/07:30pm 5.7 1.9 3.9 88 0.9 NW 13 41 7 22 - - 2.8
25/07:00pm 5.9 2.5 4.1 88 0.9 NW 11 39 6 21 - - 2.6
25/06:30pm 5.8 2.4 4.1 89 0.8 NW 11 37 6 20 - - 2.6
25/06:00pm 5.8 1.9 3.6 86 1.0 NW 13 57 7 31 - - 2.6
25/05:30pm 5.7 1.9 3.7 87 0.9 WNW 13 41 7 22 - - 2.4
25/05:00pm 6.0 2.7 4.3 89 0.8 NW 11 33 6 18 - - 1.6
25/04:30pm 5.9 2.1 3.9 87 0.9 W 13 43 7 23 - - 1.6
25/04:00pm 5.8 2.0 4.1 89 0.8 WNW 13 37 7 20 - - 1.4
25/03:30pm 5.8 1.3 4.0 88 0.9 W 17 46 9 25 - - 1.0
25/03:00pm 6.4 2.5 3.6 82 1.3 WNW 13 46 7 25 - - 0.4
25/02:30pm 6.5 2.6 3.5 81 1.4 W 13 41 7 22 - - 0.4
25/02:00pm 6.8 2.6 3.8 81 1.4 WNW 15 35 8 19 - - 0.4
25/01:30pm 6.6 3.2 3.9 83 1.3 NW 11 50 6 27 - - 0.4
25/01:00pm 6.5 2.7 4.0 84 1.2 WNW 13 33 7 18 - - 0.4
25/12:30pm 6.5 2.8 4.2 85 1.1 W 13 35 7 19 - - 0.4
25/12:00pm 6.5 3.2 4.8 89 0.8 WNW 11 41 6 22 - - 0.4
25/11:30am 6.2 2.1 4.5 89 0.8 WNW 15 41 8 22 - - 0.4
25/11:00am 6.2 2.2 4.7 90 0.7 W 15 41 8 22 - - 0.4
25/10:30am 6.0 2.7 4.8 92 0.6 W 11 41 6 22 - - 0.4
25/10:00am 5.8 1.3 4.4 91 0.7 NW 17 52 9 28 - - 0.4
25/09:30am 5.8 2.5 4.3 90 0.7 WNW 11 39 6 21 - - 0.4
25/09:00am 5.3 1.2 4.3 93 0.5 WNW 15 43 8 23 - - 7.8
25/08:30am 5.0 0.9 4.3 95 0.3 NW 15 41 8 22 - - 7.8
25/08:00am 4.3 0.8 3.6 95 0.3 WNW 11 33 6 18 - - 7.6
25/07:30am 4.5 1.4 3.5 93 0.5 W 9 37 5 20 - - 6.2
25/07:00am 4.5 0.2 3.0 90 0.7 W 15 48 8 26 - - 5.0
25/06:30am 5.1 1.2 3.6 90 0.7 W 13 43 7 23 - - 3.6
25/06:03am 5.7 -1.0 3.5 86 1.0 W 28 59 15 32 - - 2.8
25/06:00am 5.8 0.2 3.6 86 1.0 W 22 52 12 28 - - 2.8
25/05:30am 5.9 -0.8 3.9 87 0.9 W 28 63 15 34 - - 2.6
25/05:00am 5.9 1.4 4.4 90 0.7 W 17 44 9 24 - - 2.6
25/04:30am 5.6 -2.0 3.8 88 0.8 W 33 69 18 37 - - 2.6
25/04:00am 6.5 -0.1 4.0 84 1.2 W 28 56 15 30 - - 2.2
25/03:30am 6.4 -2.5 3.0 79 1.6 W 39 65 21 35 - - 2.2
25/03:08am 6.2 -0.6 3.2 81 1.4 W 28 59 15 32 - - 2.2
25/03:00am 6.1 0.9 3.3 82 1.3 W 20 44 11 24 - - 2.2
25/02:30am 6.1 2.6 3.4 83 1.3 W 11 39 6 21 - - 2.2
25/02:00am 6.4 0.8 3.4 81 1.4 W 22 69 12 37 - - 2.2
25/01:30am 6.1 1.9 3.6 84 1.2 W 15 48 8 26 - - 2.2
25/01:00am 6.0 1.8 3.8 86 1.0 W 15 39 8 21 - - 2.2
25/12:30am 6.1 1.5 3.9 86 1.0 W 17 35 9 19 - - 2.2
25/12:00am 6.1 -2.7 3.6 84 1.2 W 39 65 21 35 - - 2.2
 
Date/Time
EST
Temp
°C
App
Temp
°C
Dew
Point
°C
Rel
Hum
%
Delta-T
°C
Wind Press
QNH
hPa
Press
MSL
hPa
Rain since
9am
mm
Dir  Spd
km/h
Gust
km/h
Spd
kts
Gust
kts
24/11:30pm 5.6 -1.9 4.2 91 0.7 WNW 33 63 18 34 - - 2.2
24/11:00pm 5.6 -3.5 4.2 91 0.7 W 41 63 22 34 - - 2.2
24/10:30pm 5.5 -3.9 4.5 93 0.5 W 43 65 23 35 - - 2.2
24/10:12pm 5.3 -1.3 4.4 94 0.4 W 28 48 15 26 - - 2.2
24/10:00pm 5.3 0.5 4.4 94 0.4 W 19 39 10 21 - - 2.2
24/09:30pm 5.2 2.3 4.5 95 0.3 N 9 30 5 16 - - 2.2
24/09:00pm 5.1 1.8 4.5 96 0.3 NNW 11 28 6 15 - - 2.2
24/08:30pm 4.9 2.5 4.5 97 0.2 WNW 6 24 3 13 - - 2.2
24/08:00pm 5.0 2.1 4.4 96 0.3 W 9 22 5 12 - - 2.2
24/07:30pm 5.2 2.6 4.3 94 0.4 WNW 7 28 4 15 - - 2.2
24/07:00pm 5.2 2.3 4.5 95 0.3 NW 9 20 5 11 - - 2.2
24/06:30pm 5.4 2.9 4.7 95 0.3 WNW 7 24 4 13 - - 2.2
24/06:00pm 5.4 3.1 4.8 96 0.3 WNW 6 22 3 12 - - 2.2
24/05:30pm 5.2 2.0 5.1 99 0.0 W 11 28 6 15 - - 2.2
24/05:00pm 5.3 1.7 5.0 98 0.1 WNW 13 30 7 16 - - 2.2
24/04:30pm 5.3 2.1 4.9 97 0.2 WNW 11 32 6 17 - - 2.2
24/04:00pm 5.4 2.9 4.8 96 0.3 WNW 7 22 4 12 - - 2.2
24/03:30pm 5.4 3.0 5.1 98 0.1 WNW 7 20 4 11 - - 2.2
24/03:00pm 5.0 1.0 4.9 99 0.0 W 15 28 8 15 - - 2.2
24/02:30pm 4.3 -0.9 3.6 95 0.3 W 20 37 11 20 - - 2.2
24/02:06pm 4.1 -2.8 2.8 91 0.6 WNW 28 52 15 28 - - 1.6
24/02:00pm 3.7 -2.2 1.9 88 0.8 WNW 22 44 12 24 - - 1.2
24/01:30pm 4.0 -3.2 1.0 81 1.3 W 28 43 15 23 - - 0.0
24/01:10pm 4.9 -2.4 -0.1 70 2.1 W 28 48 15 26 - - 0.0
24/01:00pm 6.3 0.6 -1.1 59 3.1 W 19 33 10 18 - - 0.0
24/12:30pm 6.2 -1.3 -1.4 58 3.2 W 28 46 15 25 - - 0.0
24/12:22pm 5.8 -1.5 -0.3 65 2.6 WNW 28 52 15 28 - - 0.0
24/12:00pm 7.7 0.5 -2.3 49 4.2 W 26 48 14 26 - - 0.0
24/11:36am 8.7 0.6 -2.9 44 4.8 W 30 50 16 27 - - 0.0
24/11:30am 8.7 1.0 -2.9 44 4.8 W 28 44 15 24 - - 0.0
24/11:00am 8.5 2.0 -2.4 46 4.6 W 22 44 12 24 - - 0.0
24/10:30am 8.0 1.5 -2.6 47 4.4 W 22 39 12 21 - - 0.0
24/10:00am 7.4 0.6 -4.7 42 4.7 W 22 33 12 18 - - 0.0
24/09:30am 7.0 -0.6 -6.0 39 4.9 WNW 26 41 14 22 - - 0.0
24/09:00am 6.6 -0.4 -6.7 38 4.9 WNW 22 35 12 19 - - 0.0
24/08:30am 6.2 -0.9 -8.1 35 5.1 WNW 22 33 12 18 - - 0.0
24/08:00am 5.8 -1.7 -8.1 36 4.9 WNW 24 35 13 19 - - 0.0
24/07:34am 5.4 -2.8 -7.8 38 4.7 WNW 28 46 15 25 - - 0.0
24/07:30am 5.4 -3.2 -7.8 38 4.7 WNW 30 39 16 21 - - 0.0
24/07:00am 5.3 -2.9 -7.5 39 4.6 WNW 28 43 15 23 - - 0.0
24/06:30am 4.7 -2.3 -7.1 42 4.2 WNW 22 43 12 23 - - 0.0
24/06:00am 4.5 -3.7 -7.6 41 4.3 W 28 41 15 22 - - 0.0
24/05:30am 5.4 -0.6 -6.5 42 4.4 WNW 17 30 9 16 - - 0.0
24/05:00am 5.0 -1.3 -6.2 44 4.1 W 19 28 10 15 - - 0.0
24/04:30am 4.8 -1.7 -5.8 46 3.9 W 20 30 11 16 - - 0.0
24/04:00am 5.1 -1.3 -5.0 48 3.8 WNW 20 32 11 17 - - 0.0
24/03:30am 4.4 0.1 -4.6 52 3.4 WNW 9 15 5 8 - - 0.0
24/03:00am 0.5 -2.9 -5.7 63 2.2 WSW 4 11 2 6 - - 0.0
24/02:30am 0.5 -3.3 -5.7 63 2.2 SW 6 9 3 5 - - 0.0
24/02:00am 2.6 -1.8 -6.0 53 3.2 WSW 9 22 5 12 - - 0.0
24/01:30am 3.5 -1.3 -6.5 48 3.8 WSW 11 22 6 12 - - 0.0
24/01:00am 4.5 -0.7 -5.8 47 3.8 WSW 13 26 7 14 - - 0.0
24/12:30am 0.9 -3.5 -6.2 59 2.5 SW 9 17 5 9 - - 0.0
24/12:00am 0.5 -4.5 -7.7 54 2.8 WSW 11 17 6 9 - - 0.0
 
Date/Time
EST
Temp
°C
App
Temp
°C
Dew
Point
°C
Rel
Hum
%
Delta-T
°C
Wind Press
QNH
hPa
Press
MSL
hPa
Rain since
9am
mm
Dir  Spd
km/h
Gust
km/h
Spd
kts
Gust
kts
23/11:30pm 2.1 -2.2 -8.9 44 3.8 WSW 7 15 4 8 - - 0.0
23/11:00pm 2.9 -2.5 -9.0 41 4.1 W 13 26 7 14 - - 0.0
23/10:42pm 1.5 -3.4 -6.8 54 3.0 WSW 11 19 6 10 - - 0.0
23/10:30pm -3.6 -6.8 -7.0 77 1.0 SW 2 9 1 5 - - 0.0
23/10:00pm -3.8 -6.5 -6.1 84 0.6 CALM 0 4 0 2 - - 0.0
23/09:30pm -4.5 -8.4 -6.9 83 0.6 SW 6 9 3 5 - - 0.0
23/09:00pm -3.5 -7.0 -5.8 84 0.6 SW 4 6 2 3 - - 0.0
23/08:30pm -3.5 -7.4 -6.3 81 0.8 WSW 6 7 3 4 - - 0.0
23/08:00pm -2.9 -6.9 -7.4 71 1.3 SW 6 11 3 6 - - 0.0
23/07:30pm -1.8 -5.0 -7.3 66 1.7 ENE 2 4 1 2 - - 0.0
23/07:00pm -1.6 -4.8 -7.1 66 1.8 SSW 2 7 1 4 - - 0.0
23/06:30pm -0.7 -3.8 -6.6 64 2.0 W 2 4 1 2 - - 0.0
23/06:00pm -0.2 -3.0 -7.0 60 2.3 CALM 0 2 0 1 - - 0.0
23/05:30pm 0.8 -2.0 -6.5 58 2.6 CALM 0 4 0 2 - - 0.0
23/05:00pm 2.1 -1.1 -7.0 51 3.3 SW 2 4 1 2 - - 0.0
23/04:30pm 4.9 1.7 -7.5 40 4.4 N 2 7 1 4 - - 0.0
23/04:00pm 6.1 2.1 -7.5 37 4.9 NW 6 13 3 7 - - 0.0
23/03:30pm 7.9 2.9 -8.2 31 5.8 WNW 11 19 6 10 - - 0.0
23/03:00pm 9.0 4.5 -6.8 32 6.0 WNW 9 13 5 7 - - 0.0
23/02:30pm 9.5 4.6 -6.8 31 6.2 W 11 20 6 11 - - 0.0
23/02:00pm 10.1 5.5 -8.0 27 6.8 WNW 9 17 5 9 - - 0.0
23/01:30pm 10.1 4.7 -8.5 26 6.9 W 13 20 7 11 - - 0.0
23/01:00pm 10.7 5.3 -8.5 25 7.1 W 13 20 7 11 - - 0.0
23/12:30pm 10.4 4.6 -8.2 26 6.9 W 15 22 8 12 - - 0.0
23/12:00pm 10.6 6.0 -8.1 26 7.0 SW 9 24 5 13 - - 0.0
23/11:30am 10.8 6.5 -9.5 23 7.4 WSW 7 20 4 11 - - 0.0
23/11:00am 10.4 5.3 -9.8 23 7.3 WNW 11 19 6 10 - - 0.0
23/10:30am 10.4 4.1 -16.8 13 8.4 W 15 22 8 12 - - 0.0
23/10:00am 10.3 4.0 -17.8 12 8.4 W 15 22 8 12 - - 0.0
23/09:30am 9.5 3.2 -17.5 13 8.1 W 15 22 8 12 - - 0.0
23/09:00am 9.0 4.5 -15.4 16 7.6 WSW 6 17 3 9 - - 0.0
23/08:30am 7.5 2.8 -15.2 18 6.9 W 7 17 4 9 - - 0.0
23/08:00am 3.5 0.1 -9.8 37 4.6 NE 2 6 1 3 - - 0.0
23/07:30am 1.0 -2.6 -12.7 35 4.1 NE 2 4 1 2 - - 0.0
23/07:00am -1.1 -4.5 -9.9 51 2.7 E 2 6 1 3 - - 0.0
23/06:30am -1.7 -5.3 -12.3 44 3.0 NE 2 6 1 3 - - 0.0
23/06:00am -0.9 -4.2 -14.4 35 3.7 CALM 0 2 0 1 - - 0.0
23/05:30am 0.2 -3.5 -13.8 34 4.0 NE 2 4 1 2 - - 0.0
23/05:00am 0.7 -3.3 -13.3 34 4.1 SSE 4 7 2 4 - - 0.0
23/04:30am -0.5 -3.7 -12.7 39 3.5 CALM 0 4 0 2 - - 0.0
23/04:00am -0.3 -3.9 -11.9 41 3.4 N 2 6 1 3 - - 0.0
23/03:30am -1.5 -5.2 -13.6 39 3.3 WSW 2 7 1 4 - - 0.0
23/03:00am -1.9 -5.0 -10.9 50 2.6 CALM 0 4 0 2 - - 0.0
23/02:30am -1.3 -4.4 -10.6 49 2.8 CALM 0 2 0 1 - - 0.0
23/02:00am -1.2 -4.4 -12.7 41 3.3 CALM 0 2 0 1 - - 0.0
23/01:30am -1.5 -4.5 -9.8 53 2.5 CALM 0 4 0 2 - - 0.0
23/01:00am -0.9 -4.0 -10.5 48 2.9 CALM 0 4 0 2 - - 0.0
23/12:30am -1.2 -4.6 -9.8 52 2.6 S 2 4 1 2 - - 0.0
23/12:00am -0.8 -4.1 -8.0 58 2.3 W 2 4 1 2 - - 0.0

Other formats

Comma delimited format used in spreadsheet applications
http://www.bom.gov.au/fwo/IDN60801/IDN60801.94915.axf

JavaScript Object Notation format (JSON) in row-major order
http://www.bom.gov.au/fwo/IDN60801/IDN60801.94915.json

Data quality

Most of these data are generated automatically and are frequently updated. Quality checks on data are not normally performed. It is possible for incorrect values to appear. Refer to information at About Latest Weather Observations and please check the disclaimer before using these data.